Lambert St Louis International Airport
KSTL : now visible

Airfield :











YOU CAN JOIN US ON...

 
LOGIN :

Register | Disclaimer

   EN    FR    IT 

 









Legend :    VFR   Marginal VFR   IFR   Intensive IFR   Very Intensive IFR
Visi :
Ceiling :
>= 8 km
>= 3000ft
5 to 8 km
1000 to 3000 ft
1500m to 5 km
500 to 1000 ft
800 to 1500m
200 to 500 ft
< 800m
< 200 ft
Symbols :   Thunderstorms  Fog  Heavy snow  Heavy precipitations  Wind > 20 kt






- Airport Elevation : 618 ft
- IATA code : STL


KSTL - Lambert St Louis International

CURRENT METAR :
  • 182251Z 35010KT 10SM BKN070 BKN250 26/14 A3013 RMK AO2 SLP195 T02610139 $

EXPIRED METARs :
  • 182151Z 06009KT 10SM BKN048 BKN070 BKN250 27/14 A3015 RMK AO2 SLP199 T02670144 $
  • 182051Z 04006KT 10SM FEW050 BKN070 27/14 A3016 RMK AO2 SLP203 T02720144 58008 $
  • 181951Z 04008KT 10SM BKN060 26/13 A3017 RMK AO2 SLP206 T02560128 $
  • 181851Z VRB06KT 10SM SCT050 BKN065 27/14 A3017 RMK AO2 SLP208 T02670139 $

TAF KSTL
Valid from the 18 at 21:00 until the 20 at 00:00 UTC


182103Z 1821/1924 03007KT P6SM SCT050
FM190100 06004KT P6SM SKC
FM191600 04005KT P6SM SCT050
KZKC FIR / North America



MET'MAP, your aeronautical weather chart ! - Copyright ORBIFLY December 2007 - Disclaimer

ORBIFLY MET'MAP TEAM :

Programming & Development : Alexandra Zaïnal
Original concept : Baudouin d'Aumeries
Technical & hardware support : Manuel Goepfert
Assistance : Marc-Olivier Méhu




SOURCES & CREDITS :

   NOAA       Earth
Advisory